createdAt,value
2024-02-22T00:02:22.963Z,90.41
2024-02-22T00:07:25.976Z,90.41
2024-02-22T00:12:28.995Z,90.40
2024-02-22T00:17:32.498Z,90.35
2024-02-22T00:22:35.473Z,90.31
2024-02-22T00:27:40.019Z,90.33
2024-02-22T00:32:44.043Z,90.37
2024-02-22T00:37:47.096Z,90.38
2024-02-22T00:42:50.463Z,90.39
2024-02-22T00:47:53.685Z,90.40
2024-02-22T00:52:59.690Z,90.40
2024-02-22T00:58:03.105Z,90.40
2024-02-22T01:03:07.389Z,90.40
2024-02-22T01:08:10.550Z,90.40
2024-02-22T01:13:13.723Z,90.39
2024-02-22T01:18:17.142Z,90.36
2024-02-22T01:23:20.262Z,90.33
2024-02-22T01:28:23.337Z,90.31
2024-02-22T01:33:26.409Z,90.30
2024-02-22T01:38:29.330Z,90.30
2024-02-22T01:43:33.621Z,90.31
2024-02-22T01:48:37.895Z,90.30
2024-02-22T01:53:41.086Z,90.35
2024-02-22T01:58:44.990Z,90.39
2024-02-22T02:03:48.346Z,90.39
2024-02-22T02:08:51.291Z,90.32
2024-02-22T02:13:54.407Z,90.32
2024-02-22T02:18:57.831Z,90.36
2024-02-22T02:24:30.974Z,90.38
2024-02-22T02:29:33.925Z,90.39
2024-02-22T02:34:36.916Z,90.39
2024-02-22T02:39:39.897Z,90.38
2024-02-22T02:44:43.850Z,90.38
2024-02-22T02:49:46.797Z,90.34
2024-02-22T02:54:49.735Z,90.33
2024-02-22T02:59:52.669Z,90.33
2024-02-22T03:04:55.688Z,90.31
2024-02-22T03:09:58.699Z,90.30
2024-02-22T03:15:04.484Z,90.30
2024-02-22T03:20:14.052Z,90.29
2024-02-22T03:25:17.865Z,90.27
2024-02-22T03:30:21.132Z,90.29
2024-02-22T03:35:24.661Z,90.29
2024-02-22T03:40:27.738Z,90.27
2024-02-22T03:45:30.785Z,90.19
2024-02-22T03:50:34.092Z,90.23
2024-02-22T03:55:37.328Z,90.18
2024-02-22T04:00:40.453Z,90.03
2024-02-22T04:05:43.994Z,89.71
2024-02-22T04:10:47.083Z,89.67
2024-02-22T04:15:50.673Z,89.60
2024-02-22T04:20:53.645Z,89.64
2024-02-22T04:25:56.726Z,89.61
2024-02-22T04:30:59.855Z,89.63
2024-02-22T04:36:03.280Z,89.79
2024-02-22T04:41:06.339Z,89.92
2024-02-22T04:46:09.266Z,89.93
2024-02-22T04:51:12.180Z,89.74
2024-02-22T04:56:15.201Z,89.77
2024-02-22T05:01:19.396Z,89.75
2024-02-22T05:06:25.628Z,89.71
2024-02-22T05:11:29.273Z,89.74
2024-02-22T05:16:32.365Z,89.76
2024-02-22T05:21:35.378Z,89.83
2024-02-22T05:26:38.764Z,90.01
2024-02-22T05:31:41.671Z,90.06
2024-02-22T05:36:44.831Z,90.12
2024-02-22T05:41:47.785Z,90.19
2024-02-22T05:46:50.745Z,90.22
2024-02-22T05:51:54.337Z,90.25
2024-02-22T05:56:57.269Z,90.39
2024-02-22T06:02:00.295Z,90.44
2024-02-22T06:07:03.487Z,90.45
2024-02-22T06:12:10.598Z,90.50
2024-02-22T06:17:14.984Z,90.50
2024-02-22T06:22:17.936Z,90.51
2024-02-22T06:27:20.876Z,90.44
2024-02-22T06:32:27.811Z,90.50
2024-02-22T06:37:30.982Z,90.50
2024-02-22T06:42:35.166Z,90.59
2024-02-22T06:47:38.197Z,90.50
2024-02-22T06:52:41.237Z,90.47
2024-02-22T06:57:44.218Z,90.44
2024-02-22T07:02:47.253Z,90.51
2024-02-22T07:07:50.235Z,90.51
2024-02-22T07:12:53.230Z,90.50
2024-02-22T07:17:56.331Z,90.39
2024-02-22T07:22:59.385Z,90.32
2024-02-22T07:28:04.630Z,90.25
2024-02-22T07:33:08.899Z,89.69
2024-02-22T07:38:11.979Z,89.92
2024-02-22T07:43:15.077Z,89.81
2024-02-22T07:48:18.808Z,89.80
2024-02-22T07:53:22.111Z,89.75
2024-02-22T07:58:25.041Z,89.47
2024-02-22T08:03:28.316Z,89.46
2024-02-22T08:08:32.333Z,89.25
2024-02-22T08:13:36.037Z,88.86
2024-02-22T08:18:43.636Z,88.71
2024-02-22T08:23:46.674Z,88.70
2024-02-22T08:28:49.935Z,88.74
2024-02-22T08:33:53.081Z,89.12
2024-02-22T08:38:58.795Z,88.90
2024-02-22T08:44:01.964Z,88.39
2024-02-22T08:49:06.789Z,88.13
2024-02-22T08:54:09.922Z,87.61
2024-02-22T08:59:13.223Z,87.18
2024-02-22T09:04:16.222Z,87.25
2024-02-22T09:09:19.230Z,87.01
2024-02-22T09:14:23.308Z,87.21
2024-02-22T09:19:27.173Z,86.97
2024-02-22T09:24:31.382Z,87.00
2024-02-22T09:29:36.941Z,86.86
2024-02-22T09:34:40.587Z,86.64
2024-02-22T09:39:45.010Z,86.42
2024-02-22T09:44:48.136Z,86.00
2024-02-22T09:49:51.211Z,84.78
2024-02-22T09:54:54.242Z,85.40
2024-02-22T09:59:57.220Z,84.96
2024-02-22T10:05:01.911Z,84.60
2024-02-22T10:10:05.688Z,84.57
2024-02-22T10:15:19.187Z,83.80
2024-02-22T10:20:34.946Z,83.70
2024-02-22T10:25:38.725Z,83.21
2024-02-22T10:30:42.017Z,82.57
2024-02-22T10:35:45.964Z,82.06
2024-02-22T10:40:50.289Z,82.69
2024-02-22T10:46:03.360Z,82.25
2024-02-22T10:51:06.915Z,81.57
2024-02-22T10:56:16.487Z,81.76
2024-02-22T11:01:24.019Z,81.28
2024-02-22T11:06:27.165Z,79.54
2024-02-22T11:11:32.352Z,79.27
2024-02-22T11:16:37.305Z,79.43
2024-02-22T11:21:41.526Z,79.47
2024-02-22T11:26:44.491Z,78.76
2024-02-22T11:31:50.892Z,79.21
2024-02-22T11:37:24.061Z,79.10
2024-02-22T11:42:27.921Z,78.29
2024-02-22T11:47:31.090Z,77.85
2024-02-22T11:52:34.078Z,78.07
2024-02-22T11:57:37.183Z,77.89
2024-02-22T12:02:41.626Z,76.70
2024-02-22T12:07:45.610Z,76.86
2024-02-22T12:12:48.799Z,76.21
2024-02-22T12:17:53.765Z,75.71
2024-02-22T12:22:57.173Z,75.44
2024-02-22T12:28:00.495Z,75.17
2024-02-22T12:33:10.327Z,74.87
2024-02-22T12:38:13.354Z,73.96
2024-02-22T12:43:23.252Z,74.14
2024-02-22T12:48:32.865Z,74.68
2024-02-22T12:53:36.281Z,74.56
2024-02-22T12:58:39.420Z,74.71
2024-02-22T13:03:45.944Z,75.11
2024-02-22T13:08:49.038Z,74.34
2024-02-22T13:13:52.446Z,74.14
2024-02-22T13:18:55.973Z,74.64
2024-02-22T13:23:59.151Z,74.97
2024-02-22T13:29:03.826Z,74.92
2024-02-22T13:34:07.279Z,74.39
2024-02-22T13:39:11.120Z,75.06
2024-02-22T13:44:20.322Z,74.64
2024-02-22T13:49:26.654Z,74.96
2024-02-22T13:54:29.716Z,75.34
2024-02-22T13:59:33.126Z,75.50
2024-02-22T14:04:38.101Z,75.53
2024-02-22T14:09:41.824Z,75.62
2024-02-22T14:14:44.961Z,75.72
2024-02-22T14:19:51.033Z,75.75
2024-02-22T14:24:59.940Z,75.76
2024-02-22T14:30:06.939Z,76.08
2024-02-22T14:35:11.153Z,76.38
2024-02-22T14:40:14.475Z,76.38
2024-02-22T14:45:19.360Z,76.53
2024-02-22T14:50:22.467Z,76.80
2024-02-22T14:55:25.515Z,77.21
2024-02-22T15:00:28.823Z,77.52
2024-02-22T15:05:31.951Z,77.85
2024-02-22T15:10:35.432Z,78.14
2024-02-22T15:15:38.508Z,78.57
2024-02-22T15:20:44.500Z,79.21
2024-02-22T15:25:47.847Z,79.82
2024-02-22T15:30:51.064Z,80.17
2024-02-22T15:35:54.068Z,80.46
2024-02-22T15:40:57.102Z,80.49
2024-02-22T15:46:00.276Z,80.80
2024-02-22T15:51:03.480Z,80.89
2024-02-22T15:56:09.165Z,81.50
2024-02-22T16:01:17.916Z,81.78
2024-02-22T16:06:23.234Z,81.60
2024-02-22T16:11:28.035Z,82.12
2024-02-22T16:16:31.450Z,82.13
2024-02-22T16:21:34.498Z,82.49
2024-02-22T16:26:37.520Z,82.33
2024-02-22T16:31:40.838Z,82.46
2024-02-22T16:36:44.263Z,82.82
2024-02-22T16:41:51.720Z,82.88
2024-02-22T16:46:55.029Z,82.93
2024-02-22T16:51:58.316Z,83.21
2024-02-22T16:57:01.834Z,83.54
2024-02-22T17:02:05.185Z,83.55
2024-02-22T17:07:08.398Z,83.96
2024-02-22T17:12:11.393Z,84.07
2024-02-22T17:17:14.537Z,84.25
2024-02-22T17:22:17.593Z,84.39
2024-02-22T17:27:20.575Z,84.56
2024-02-22T17:32:23.677Z,84.71
2024-02-22T17:37:27.195Z,84.89
2024-02-22T17:42:31.253Z,85.05
2024-02-22T17:47:37.266Z,85.29
2024-02-22T17:52:41.586Z,85.53
2024-02-22T17:57:44.568Z,85.47
2024-02-22T18:02:50.231Z,85.65
2024-02-22T18:07:59.730Z,85.79
2024-02-22T18:13:03.500Z,85.62
2024-02-22T18:18:08.585Z,85.46
2024-02-22T18:23:11.908Z,85.79
2024-02-22T18:28:15.538Z,85.82
2024-02-22T18:33:18.593Z,85.92
2024-02-22T18:38:21.733Z,86.19
2024-02-22T18:43:25.174Z,85.99
2024-02-22T18:48:29.162Z,86.38
2024-02-22T18:53:32.248Z,86.37
2024-02-22T18:58:35.182Z,86.25
2024-02-22T19:03:38.190Z,86.28
2024-02-22T19:08:41.227Z,86.46
2024-02-22T19:13:44.279Z,86.58
2024-02-22T19:18:49.263Z,86.60
2024-02-22T19:23:52.656Z,86.71
2024-02-22T19:28:57.736Z,86.63
2024-02-22T19:34:02.191Z,86.68
2024-02-22T19:39:05.358Z,86.71
2024-02-22T19:44:08.495Z,86.74
2024-02-22T19:49:11.695Z,86.79
2024-02-22T19:54:15.743Z,86.82
2024-02-22T19:59:18.824Z,87.00
2024-02-22T20:04:22.015Z,87.24
2024-02-22T20:09:25.077Z,87.35
2024-02-22T20:14:28.143Z,87.36
2024-02-22T20:19:31.251Z,87.28
2024-02-22T20:24:34.388Z,87.49
2024-02-22T20:29:37.459Z,87.45
2024-02-22T20:34:40.630Z,87.48
2024-02-22T20:39:44.592Z,87.49
2024-02-22T20:44:52.528Z,87.41
2024-02-22T20:49:55.538Z,87.39
2024-02-22T20:54:58.592Z,87.27
2024-02-22T21:00:02.327Z,87.26
2024-02-22T21:05:07.727Z,87.27
2024-02-22T21:10:11.907Z,87.22
2024-02-22T21:15:15.053Z,87.32
2024-02-22T21:20:18.399Z,87.25
2024-02-22T21:25:21.638Z,87.25
2024-02-22T21:30:24.704Z,87.11
2024-02-22T21:35:27.965Z,87.19
2024-02-22T21:40:31.117Z,87.24
2024-02-22T21:45:34.131Z,87.25
2024-02-22T21:50:38.954Z,87.18
2024-02-22T21:55:42.429Z,87.22
2024-02-22T22:00:45.415Z,87.14
2024-02-22T22:05:48.490Z,87.15
2024-02-22T22:10:53.144Z,87.13
2024-02-22T22:15:56.156Z,87.08
2024-02-22T22:20:59.233Z,87.00
2024-02-22T22:26:04.475Z,87.00
2024-02-22T22:31:07.593Z,86.97
2024-02-22T22:36:14.888Z,86.94
2024-02-22T22:41:20.244Z,86.86
2024-02-22T22:46:23.168Z,86.83
2024-02-22T22:51:26.164Z,86.82
2024-02-22T22:56:29.196Z,86.79
2024-02-22T23:01:32.144Z,86.66
2024-02-22T23:06:35.185Z,86.60
2024-02-22T23:11:38.518Z,86.52
2024-02-22T23:16:41.656Z,86.43
2024-02-22T23:21:44.571Z,86.32
2024-02-22T23:26:48.591Z,86.32
2024-02-22T23:31:51.879Z,86.17
2024-02-22T23:36:55.095Z,86.21
2024-02-22T23:41:58.160Z,86.10
2024-02-22T23:47:01.887Z,86.08
2024-02-22T23:52:05.354Z,85.83
2024-02-22T23:57:08.385Z,85.92
